createdAt,value
2022-09-27T00:02:09.422Z,84.49
2022-09-27T00:04:37.649Z,84.01
2022-09-27T00:07:06.110Z,84.74
2022-09-27T00:09:34.713Z,84.50
2022-09-27T00:12:03.181Z,84.57
2022-09-27T00:14:31.196Z,86.49
2022-09-27T00:17:00.583Z,86.65
2022-09-27T00:19:28.758Z,85.79
2022-09-27T00:21:57.942Z,86.53
2022-09-27T00:24:26.074Z,86.07
2022-09-27T00:26:54.314Z,85.17
2022-09-27T00:29:22.488Z,87.69
2022-09-27T00:31:50.835Z,87.32
2022-09-27T00:34:22.723Z,86.95
2022-09-27T00:36:51.865Z,87.59
2022-09-27T00:39:20.078Z,87.99
2022-09-27T00:41:48.490Z,87.01
2022-09-27T00:44:59.295Z,87.88
2022-09-27T00:47:31.826Z,87.14
2022-09-27T00:50:06.642Z,86.59
2022-09-27T00:52:43.263Z,87.25
2022-09-27T00:55:16.359Z,86.38
2022-09-27T00:57:46.221Z,87.54
2022-09-27T01:00:16.329Z,86.56
2022-09-27T01:02:48.729Z,87.96
2022-09-27T01:05:23.159Z,87.63
2022-09-27T01:07:51.408Z,88.50
2022-09-27T01:10:22.862Z,87.64
2022-09-27T01:13:03.406Z,87.82
2022-09-27T01:15:40.177Z,88.24
2022-09-27T01:18:25.970Z,87.18
2022-09-27T01:21:20.500Z,87.33
2022-09-27T01:24:16.763Z,87.82
2022-09-27T01:27:12.205Z,88.73
2022-09-27T01:29:56.684Z,88.08
2022-09-27T01:32:36.704Z,87.48
2022-09-27T01:35:15.562Z,88.61
2022-09-27T01:37:56.792Z,87.26
2022-09-27T01:40:31.388Z,87.89
2022-09-27T01:43:28.548Z,88.70
2022-09-27T01:46:03.098Z,88.71
2022-09-27T01:48:56.436Z,87.36
2022-09-27T01:51:29.347Z,87.60
2022-09-27T01:54:03.660Z,86.97
2022-09-27T01:56:39.309Z,87.84
2022-09-27T01:59:15.646Z,90.00
2022-09-27T02:01:53.639Z,90.51
2022-09-27T02:04:29.893Z,89.15
2022-09-27T02:07:19.402Z,88.86
2022-09-27T02:09:54.300Z,90.54
2022-09-27T02:12:31.129Z,91.87
2022-09-27T02:15:05.208Z,89.21
2022-09-27T02:17:44.270Z,89.28
2022-09-27T02:20:19.682Z,92.80
2022-09-27T02:22:58.502Z,91.64
2022-09-27T02:25:31.818Z,91.59
2022-09-27T02:28:05.017Z,91.18
2022-09-27T02:30:35.797Z,93.76
2022-09-27T02:33:17.178Z,93.49
2022-09-27T02:35:47.190Z,93.23
2022-09-27T02:38:15.474Z,93.33
2022-09-27T02:40:47.730Z,92.91
2022-09-27T02:43:18.900Z,92.09
2022-09-27T02:46:02.509Z,92.41
2022-09-27T02:48:38.722Z,90.16
2022-09-27T02:51:28.838Z,90.47
2022-09-27T02:54:12.637Z,90.12
2022-09-27T02:57:13.063Z,89.13
2022-09-27T03:00:09.670Z,89.52
2022-09-27T03:02:58.892Z,88.18
2022-09-27T03:05:34.963Z,88.10
2022-09-27T03:08:05.751Z,87.33
2022-09-27T03:10:34.396Z,86.97
2022-09-27T03:13:04.454Z,86.87
2022-09-27T03:15:33.192Z,86.30
2022-09-27T03:18:01.310Z,85.92
2022-09-27T03:20:47.848Z,86.39
2022-09-27T03:23:19.710Z,87.29
2022-09-27T03:25:47.981Z,86.56
2022-09-27T03:28:16.249Z,86.60
2022-09-27T03:30:46.873Z,86.48
2022-09-27T03:33:27.814Z,87.30
2022-09-27T03:36:00.012Z,88.42
2022-09-27T03:38:29.561Z,87.66
2022-09-27T03:40:58.435Z,87.25
2022-09-27T03:43:26.537Z,86.58
2022-09-27T03:45:58.088Z,86.02
2022-09-27T03:48:28.316Z,85.65
2022-09-27T03:50:56.489Z,85.44
2022-09-27T03:53:24.732Z,86.56
2022-09-27T03:55:54.648Z,87.57
2022-09-27T03:58:22.525Z,87.14
2022-09-27T04:00:50.474Z,87.35
2022-09-27T04:03:19.871Z,89.21
2022-09-27T04:06:06.462Z,88.59
2022-09-27T04:08:39.541Z,87.93
2022-09-27T04:11:09.432Z,87.82
2022-09-27T04:13:38.740Z,87.40
2022-09-27T04:16:07.794Z,87.95
2022-09-27T04:19:10.719Z,86.98
2022-09-27T04:21:41.687Z,86.47
2022-09-27T04:24:11.924Z,85.55
2022-09-27T04:26:49.740Z,85.91
2022-09-27T04:29:23.740Z,85.43
2022-09-27T04:31:54.006Z,85.23
2022-09-27T04:35:17.091Z,86.76
2022-09-27T04:37:46.586Z,87.04
2022-09-27T04:40:16.756Z,87.02
2022-09-27T04:42:46.050Z,87.34
2022-09-27T04:45:14.228Z,86.63
2022-09-27T04:47:44.284Z,87.23
2022-09-27T04:50:12.918Z,86.09
2022-09-27T04:52:56.446Z,85.87
2022-09-27T04:55:24.727Z,87.21
2022-09-27T04:57:54.408Z,89.05
2022-09-27T05:00:22.902Z,88.22
2022-09-27T05:02:57.650Z,88.70
2022-09-27T05:05:38.488Z,88.37
2022-09-27T05:08:06.798Z,86.83
2022-09-27T05:10:55.462Z,87.04
2022-09-27T05:13:24.739Z,86.99
2022-09-27T05:15:52.869Z,87.03
2022-09-27T05:18:46.742Z,88.13
2022-09-27T05:21:33.203Z,88.25
2022-09-27T05:24:01.184Z,88.14
2022-09-27T05:26:31.421Z,86.57
2022-09-27T05:29:00.845Z,86.82
2022-09-27T05:31:29.317Z,86.84
2022-09-27T05:33:57.334Z,87.68
2022-09-27T05:36:34.714Z,88.30
2022-09-27T05:39:02.598Z,88.14
2022-09-27T05:41:32.782Z,88.95
2022-09-27T05:44:02.599Z,89.08
2022-09-27T05:46:30.520Z,89.19
2022-09-27T05:48:58.770Z,87.88
2022-09-27T05:51:26.707Z,85.79
2022-09-27T05:53:54.885Z,85.69
2022-09-27T05:56:28.420Z,87.94
2022-09-27T05:59:29.968Z,87.40
2022-09-27T06:02:16.739Z,86.25
2022-09-27T06:04:56.930Z,86.26
2022-09-27T06:07:43.408Z,86.33
2022-09-27T06:10:16.842Z,86.14
2022-09-27T06:12:44.861Z,86.42
2022-09-27T06:15:36.109Z,87.93
2022-09-27T06:18:06.257Z,85.63
2022-09-27T06:20:35.969Z,86.21
2022-09-27T06:23:08.079Z,88.02
2022-09-27T06:25:39.120Z,86.77
2022-09-27T06:28:20.550Z,86.17
2022-09-27T06:30:52.446Z,87.19
2022-09-27T06:33:29.111Z,88.17
2022-09-27T06:36:02.655Z,86.27
2022-09-27T06:38:31.833Z,85.29
2022-09-27T06:41:14.553Z,84.65
2022-09-27T06:43:54.327Z,84.08
2022-09-27T06:46:42.725Z,84.80
2022-09-27T06:49:29.341Z,86.06
2022-09-27T06:51:58.524Z,84.38
2022-09-27T06:54:26.481Z,84.29
2022-09-27T06:56:56.954Z,85.89
2022-09-27T06:59:44.345Z,84.64
2022-09-27T07:02:32.131Z,82.97
2022-09-27T07:05:21.302Z,82.77
2022-09-27T07:08:07.875Z,83.29
2022-09-27T07:10:37.748Z,82.61
2022-09-27T07:13:07.435Z,81.86
2022-09-27T07:15:37.107Z,82.37
2022-09-27T07:18:09.615Z,82.52
2022-09-27T07:20:38.339Z,81.73
2022-09-27T07:23:08.501Z,83.68
2022-09-27T07:25:36.736Z,82.55
2022-09-27T07:28:07.049Z,83.81
2022-09-27T07:30:37.901Z,83.98
2022-09-27T07:33:09.004Z,84.37
2022-09-27T07:35:40.240Z,85.44
2022-09-27T07:38:10.259Z,83.98
2022-09-27T07:40:39.151Z,84.81
2022-09-27T07:43:08.166Z,84.84
2022-09-27T07:45:37.538Z,85.72
2022-09-27T07:48:24.767Z,84.86
2022-09-27T07:51:21.610Z,84.46
2022-09-27T07:53:53.338Z,82.56
2022-09-27T07:56:41.543Z,82.87
2022-09-27T07:59:12.808Z,83.17
2022-09-27T08:01:40.884Z,82.29
2022-09-27T08:04:10.436Z,82.33
2022-09-27T08:06:38.384Z,79.90
2022-09-27T08:09:07.315Z,78.69
2022-09-27T08:11:35.523Z,81.32
2022-09-27T08:14:05.008Z,80.54
2022-09-27T08:16:35.485Z,79.33
2022-09-27T08:19:18.265Z,78.94
2022-09-27T08:22:04.808Z,78.20
2022-09-27T08:24:47.187Z,75.79
2022-09-27T08:27:33.821Z,72.00
2022-09-27T08:30:05.082Z,74.68
2022-09-27T08:32:33.832Z,74.29
2022-09-27T08:35:04.750Z,72.44
2022-09-27T08:37:35.274Z,74.26
2022-09-27T08:40:03.993Z,74.15
2022-09-27T08:42:43.109Z,71.42
2022-09-27T08:45:18.614Z,72.83
2022-09-27T08:47:51.315Z,73.70
2022-09-27T08:50:29.175Z,74.60
2022-09-27T08:53:03.802Z,71.95
2022-09-27T08:55:37.290Z,72.29
2022-09-27T08:58:16.330Z,72.92
2022-09-27T09:00:44.498Z,71.50
2022-09-27T09:03:19.561Z,73.74
2022-09-27T09:06:01.754Z,72.21
2022-09-27T09:08:42.951Z,73.56
2022-09-27T09:11:45.321Z,72.23
2022-09-27T09:14:27.332Z,74.18
2022-09-27T09:17:05.117Z,75.39
2022-09-27T09:19:55.078Z,75.92
2022-09-27T09:22:45.939Z,77.74
2022-09-27T09:25:24.683Z,76.19
2022-09-27T09:28:05.478Z,76.10
2022-09-27T09:30:43.373Z,77.61
2022-09-27T09:33:27.559Z,76.95
2022-09-27T09:36:01.194Z,74.53
2022-09-27T09:38:40.571Z,72.95
2022-09-27T09:41:16.275Z,70.92
2022-09-27T09:43:48.203Z,69.29
2022-09-27T09:46:22.937Z,67.98
2022-09-27T09:48:58.636Z,66.21
2022-09-27T09:51:35.099Z,64.94
2022-09-27T09:54:10.046Z,65.29
2022-09-27T09:56:45.759Z,65.08
2022-09-27T09:59:19.060Z,64.20
2022-09-27T10:01:57.403Z,65.56
2022-09-27T10:04:27.977Z,66.35
2022-09-27T10:07:00.578Z,64.85
2022-09-27T10:09:34.713Z,64.28
2022-09-27T10:12:23.254Z,62.60
2022-09-27T10:14:55.307Z,61.65
2022-09-27T10:17:28.366Z,61.78
2022-09-27T10:19:59.875Z,60.15
2022-09-27T10:22:33.873Z,62.16
2022-09-27T10:25:10.834Z,62.18
2022-09-27T10:27:56.686Z,63.63
2022-09-27T10:30:32.570Z,62.33
2022-09-27T10:33:07.784Z,62.31
2022-09-27T10:35:45.132Z,63.32
2022-09-27T10:38:26.455Z,62.27
2022-09-27T10:41:18.554Z,61.91
2022-09-27T10:43:46.650Z,63.69
2022-09-27T10:46:28.585Z,62.83
2022-09-27T10:49:19.052Z,65.13
2022-09-27T10:51:52.028Z,66.33
2022-09-27T10:54:22.423Z,65.21
2022-09-27T10:57:05.366Z,65.38
2022-09-27T10:59:37.623Z,64.98
2022-09-27T11:02:08.152Z,66.07
2022-09-27T11:04:40.359Z,66.77
2022-09-27T11:07:15.009Z,65.97
2022-09-27T11:09:52.742Z,66.15
2022-09-27T11:12:25.201Z,67.41
2022-09-27T11:14:57.968Z,65.04
2022-09-27T11:17:36.603Z,65.63
2022-09-27T11:20:14.947Z,66.57
2022-09-27T11:23:23.332Z,64.67
2022-09-27T11:26:05.965Z,64.86
2022-09-27T11:28:45.774Z,63.54
2022-09-27T11:31:35.520Z,64.86
2022-09-27T11:34:29.848Z,64.29
2022-09-27T11:37:07.770Z,63.43
2022-09-27T11:39:51.165Z,63.73
2022-09-27T11:42:39.960Z,63.29
2022-09-27T11:45:45.404Z,63.47
2022-09-27T11:48:31.083Z,64.06
2022-09-27T11:51:21.632Z,66.27
2022-09-27T11:54:06.778Z,63.76
2022-09-27T11:56:46.489Z,70.87
2022-09-27T11:59:42.948Z,75.28
2022-09-27T12:02:28.975Z,78.41
2022-09-27T12:05:15.534Z,78.87
2022-09-27T12:08:08.169Z,76.38
2022-09-27T12:10:39.146Z,76.05
2022-09-27T12:13:12.961Z,74.78
2022-09-27T12:15:44.972Z,75.46
2022-09-27T12:18:25.806Z,75.20
2022-09-27T12:20:55.045Z,75.73
2022-09-27T12:23:27.278Z,76.15
2022-09-27T12:26:07.375Z,76.62
2022-09-27T12:28:41.976Z,78.84
2022-09-27T12:31:30.133Z,77.59
2022-09-27T12:34:19.645Z,77.97
2022-09-27T12:36:54.332Z,79.06
2022-09-27T12:39:26.835Z,77.06
2022-09-27T12:42:15.898Z,79.44
2022-09-27T12:44:50.718Z,78.31
2022-09-27T12:47:40.059Z,78.71
2022-09-27T12:50:29.059Z,79.47
2022-09-27T12:53:04.354Z,78.30
2022-09-27T12:55:48.481Z,75.96
2022-09-27T12:58:34.533Z,78.80
2022-09-27T13:01:15.079Z,76.85
2022-09-27T13:04:01.434Z,75.14
2022-09-27T13:06:43.558Z,76.88
2022-09-27T13:09:43.952Z,77.05
2022-09-27T13:12:15.067Z,75.47
2022-09-27T13:14:50.231Z,78.67
2022-09-27T13:17:50.023Z,78.06
2022-09-27T13:20:48.315Z,80.53
2022-09-27T13:24:00.555Z,80.18
2022-09-27T13:26:47.013Z,81.54
2022-09-27T13:29:27.703Z,81.50
2022-09-27T13:32:23.957Z,80.74
2022-09-27T13:35:19.854Z,81.47
2022-09-27T13:37:56.884Z,80.49
2022-09-27T13:40:37.809Z,78.99
2022-09-27T13:43:48.788Z,79.35
2022-09-27T13:46:36.203Z,78.58
2022-09-27T13:49:15.846Z,80.95
2022-09-27T13:52:06.799Z,80.41
2022-09-27T13:54:42.098Z,79.29
2022-09-27T13:57:42.543Z,80.25
2022-09-27T14:00:18.349Z,80.28
2022-09-27T14:03:02.631Z,79.46
2022-09-27T14:05:37.001Z,81.04
2022-09-27T14:08:08.338Z,81.60
2022-09-27T14:10:37.591Z,80.39
2022-09-27T14:13:08.214Z,80.25
2022-09-27T14:15:48.311Z,80.74
2022-09-27T14:18:16.785Z,80.81
2022-09-27T14:20:47.830Z,84.05
2022-09-27T14:23:34.290Z,84.29
2022-09-27T14:26:04.317Z,83.59
2022-09-27T14:28:42.536Z,82.56
2022-09-27T14:31:18.726Z,83.03
2022-09-27T14:34:16.067Z,82.17
2022-09-27T14:37:07.635Z,82.50
2022-09-27T14:39:56.263Z,83.17
2022-09-27T14:42:36.330Z,83.62
2022-09-27T14:45:25.710Z,84.13
2022-09-27T14:47:53.881Z,83.51
2022-09-27T14:50:25.750Z,81.48
2022-09-27T14:52:56.168Z,81.64
2022-09-27T14:55:28.271Z,81.87
2022-09-27T14:58:01.393Z,82.93
2022-09-27T15:00:33.911Z,83.69
2022-09-27T15:03:08.923Z,83.94
2022-09-27T15:05:37.119Z,82.86
2022-09-27T15:08:07.095Z,83.95
2022-09-27T15:10:37.667Z,81.75
2022-09-27T15:13:08.335Z,82.10
2022-09-27T15:15:39.919Z,82.30
2022-09-27T15:18:32.408Z,82.78
2022-09-27T15:21:01.268Z,83.42
2022-09-27T15:23:31.335Z,81.76
2022-09-27T15:26:07.028Z,80.85
2022-09-27T15:28:38.311Z,80.90
2022-09-27T15:31:08.629Z,81.87
2022-09-27T15:33:37.090Z,82.76
2022-09-27T15:36:07.472Z,76.89
2022-09-27T15:38:37.931Z,76.31
2022-09-27T15:41:09.464Z,77.77
2022-09-27T15:43:45.780Z,75.68
2022-09-27T15:46:30.331Z,75.84
2022-09-27T15:49:27.541Z,75.00
2022-09-27T15:51:57.252Z,75.39
2022-09-27T15:54:27.118Z,75.14
2022-09-27T15:56:58.299Z,75.58
2022-09-27T15:59:28.828Z,75.58
2022-09-27T16:02:04.264Z,74.99
2022-09-27T16:04:35.418Z,75.49
2022-09-27T16:07:05.377Z,74.37
2022-09-27T16:09:33.206Z,76.36
2022-09-27T16:12:01.351Z,75.83
2022-09-27T16:14:29.190Z,76.01
2022-09-27T16:16:59.978Z,76.33
2022-09-27T16:19:27.743Z,75.23
2022-09-27T16:21:55.589Z,75.21
2022-09-27T16:24:25.127Z,74.74
2022-09-27T16:26:52.870Z,76.47
2022-09-27T16:29:20.619Z,75.63
2022-09-27T16:31:48.535Z,75.12
2022-09-27T16:34:18.385Z,75.39
2022-09-27T16:36:46.220Z,75.85
2022-09-27T16:39:14.948Z,75.17
2022-09-27T16:41:43.582Z,77.38
2022-09-27T16:44:13.501Z,74.38
2022-09-27T16:46:42.183Z,73.59
2022-09-27T16:49:30.395Z,75.69
2022-09-27T16:52:01.608Z,75.84
2022-09-27T16:54:30.533Z,75.02
2022-09-27T16:56:59.698Z,75.24
2022-09-27T16:59:29.643Z,75.74
2022-09-27T17:01:58.152Z,75.35
2022-09-27T17:04:27.455Z,75.92
2022-09-27T17:06:55.287Z,75.46
2022-09-27T17:09:24.928Z,74.77
2022-09-27T17:11:53.126Z,75.32
2022-09-27T17:14:21.085Z,75.26
2022-09-27T17:16:50.452Z,74.85
2022-09-27T17:19:18.983Z,74.78
2022-09-27T17:21:47.608Z,73.99
2022-09-27T17:24:15.453Z,74.15
2022-09-27T17:26:45.126Z,74.77
2022-09-27T17:29:13.550Z,73.81
2022-09-27T17:31:42.875Z,74.81
2022-09-27T17:34:13.332Z,74.79
2022-09-27T17:36:43.238Z,74.80
2022-09-27T17:39:13.322Z,76.35
2022-09-27T17:41:45.060Z,74.31
2022-09-27T17:44:14.615Z,75.38
2022-09-27T17:46:44.284Z,76.03
2022-09-27T17:49:30.365Z,76.00
2022-09-27T17:51:58.592Z,75.77
2022-09-27T17:54:28.071Z,76.27
2022-09-27T17:56:57.287Z,76.08
2022-09-27T17:59:25.926Z,76.69
2022-09-27T18:01:56.261Z,76.85
2022-09-27T18:04:24.101Z,77.06
2022-09-27T18:06:51.846Z,77.72
2022-09-27T18:09:19.740Z,76.00
2022-09-27T18:11:48.205Z,77.24
2022-09-27T18:14:17.818Z,76.28
2022-09-27T18:16:45.865Z,77.19
2022-09-27T18:19:16.167Z,75.06
2022-09-27T18:21:44.131Z,76.36
2022-09-27T18:24:14.128Z,75.97
2022-09-27T18:26:42.189Z,76.42
2022-09-27T18:29:12.786Z,76.95
2022-09-27T18:31:47.965Z,76.20
2022-09-27T18:34:19.277Z,75.62
2022-09-27T18:36:49.427Z,74.76
2022-09-27T18:39:19.154Z,74.71
2022-09-27T18:41:48.587Z,75.75
2022-09-27T18:44:17.496Z,76.22
2022-09-27T18:46:47.198Z,76.50
2022-09-27T18:49:16.068Z,75.64
2022-09-27T18:51:46.967Z,75.32
2022-09-27T18:54:17.079Z,73.85
2022-09-27T18:56:45.175Z,73.47
2022-09-27T18:59:13.318Z,73.84
2022-09-27T19:01:45.057Z,74.92
2022-09-27T19:04:20.389Z,75.29
2022-09-27T19:06:49.881Z,75.28
2022-09-27T19:09:18.275Z,74.33
2022-09-27T19:11:46.721Z,76.97
2022-09-27T19:14:17.445Z,75.75
2022-09-27T19:16:47.153Z,74.72
2022-09-27T19:19:16.990Z,75.00
2022-09-27T19:21:45.312Z,74.69
2022-09-27T19:24:16.183Z,74.98
2022-09-27T19:26:44.129Z,76.31
2022-09-27T19:29:12.774Z,75.15
2022-09-27T19:31:42.882Z,75.47
2022-09-27T19:34:10.817Z,76.09
2022-09-27T19:36:39.953Z,76.16
2022-09-27T19:39:07.978Z,76.33
2022-09-27T19:41:35.830Z,75.98
2022-09-27T19:44:03.675Z,76.08
2022-09-27T19:46:31.568Z,76.01
2022-09-27T19:49:01.325Z,76.24
2022-09-27T19:51:30.169Z,76.41
2022-09-27T19:53:59.347Z,77.36
2022-09-27T19:56:27.065Z,76.86
2022-09-27T19:58:55.683Z,75.90
2022-09-27T20:01:25.767Z,75.79
2022-09-27T20:03:56.486Z,75.89
2022-09-27T20:06:24.348Z,75.82
2022-09-27T20:08:52.261Z,76.12
2022-09-27T20:11:23.083Z,77.86
2022-09-27T20:13:53.475Z,77.84
2022-09-27T20:16:23.401Z,76.82
2022-09-27T20:18:52.967Z,76.39
2022-09-27T20:21:23.051Z,76.98
2022-09-27T20:23:52.208Z,78.04
2022-09-27T20:26:23.083Z,77.64
2022-09-27T20:28:53.108Z,79.02
2022-09-27T20:31:22.999Z,78.45
2022-09-27T20:33:53.908Z,79.17
2022-09-27T20:36:23.803Z,78.60
2022-09-27T20:38:55.291Z,77.67
2022-09-27T20:41:26.992Z,78.77
2022-09-27T20:43:56.125Z,78.97
2022-09-27T20:46:25.618Z,78.19
2022-09-27T20:48:55.098Z,77.53
2022-09-27T20:51:24.120Z,77.88
2022-09-27T20:53:52.675Z,77.05
2022-09-27T20:56:22.595Z,76.65
2022-09-27T20:58:53.975Z,76.84
2022-09-27T21:01:23.485Z,77.50
2022-09-27T21:03:54.637Z,77.48
2022-09-27T21:06:23.882Z,78.38
2022-09-27T21:08:52.296Z,78.37
2022-09-27T21:11:20.897Z,77.88
2022-09-27T21:13:49.624Z,77.51
2022-09-27T21:16:20.507Z,77.10
2022-09-27T21:18:50.643Z,77.75
2022-09-27T21:21:19.835Z,78.16
2022-09-27T21:23:48.743Z,77.60
2022-09-27T21:26:18.281Z,77.14
2022-09-27T21:28:48.263Z,78.14
2022-09-27T21:31:22.515Z,78.48
2022-09-27T21:33:53.488Z,78.44
2022-09-27T21:36:22.836Z,77.50
2022-09-27T21:38:50.811Z,78.42
2022-09-27T21:41:19.679Z,79.05
2022-09-27T21:43:49.259Z,78.72
2022-09-27T21:46:20.261Z,78.49
2022-09-27T21:48:49.874Z,78.73
2022-09-27T21:51:19.873Z,78.93
2022-09-27T21:53:52.116Z,78.42
2022-09-27T21:56:20.949Z,79.38
2022-09-27T21:58:50.839Z,79.13
2022-09-27T22:01:23.841Z,81.05
2022-09-27T22:03:54.005Z,82.16
2022-09-27T22:06:26.464Z,82.42
2022-09-27T22:08:55.797Z,84.50
2022-09-27T22:11:25.559Z,83.88
2022-09-27T22:13:55.697Z,84.06
2022-09-27T22:16:26.745Z,83.40
2022-09-27T22:18:56.749Z,82.68
2022-09-27T22:21:27.115Z,82.15
2022-09-27T22:23:55.908Z,83.87
2022-09-27T22:26:26.049Z,83.92
2022-09-27T22:28:54.433Z,84.40
2022-09-27T22:31:26.219Z,83.60
2022-09-27T22:33:56.357Z,83.60
2022-09-27T22:36:24.954Z,84.63
2022-09-27T22:38:53.425Z,83.82
2022-09-27T22:41:21.865Z,83.60
2022-09-27T22:43:49.866Z,84.76
2022-09-27T22:46:19.231Z,83.66
2022-09-27T22:48:49.529Z,83.64
2022-09-27T22:51:18.306Z,84.40
2022-09-27T22:53:46.349Z,83.63
2022-09-27T22:56:16.692Z,83.92
2022-09-27T22:58:45.277Z,84.52
2022-09-27T23:01:16.894Z,83.72
2022-09-27T23:03:49.147Z,84.04
2022-09-27T23:19:24.630Z,85.65
2022-09-27T23:21:54.144Z,85.35
2022-09-27T23:24:23.555Z,85.96
2022-09-27T23:27:11.982Z,85.49
2022-09-27T23:29:40.110Z,86.40
2022-09-27T23:32:07.893Z,85.73
2022-09-27T23:34:37.819Z,86.46
2022-09-27T23:37:07.049Z,86.47
2022-09-27T23:39:34.858Z,87.08
2022-09-27T23:42:03.261Z,86.31
2022-09-27T23:44:31.325Z,87.92
2022-09-27T23:47:00.444Z,87.42
2022-09-27T23:49:28.712Z,88.16
2022-09-27T23:51:56.511Z,88.68
2022-09-27T23:54:25.649Z,87.99
2022-09-27T23:56:53.442Z,89.60
2022-09-27T23:59:21.242Z,89.79
